createdAt,value
2022-09-01T00:01:49.110Z,1.10
2022-09-01T00:04:19.305Z,0.97
2022-09-01T00:06:48.576Z,0.80
2022-09-01T00:09:18.300Z,0.77
2022-09-01T00:11:50.497Z,0.90
2022-09-01T00:14:29.940Z,0.73
2022-09-01T00:16:59.979Z,0.90
2022-09-01T00:19:27.209Z,0.83
2022-09-01T00:21:54.156Z,0.80
2022-09-01T00:24:21.658Z,0.70
2022-09-01T00:26:49.114Z,0.90
2022-09-01T00:29:16.326Z,0.80
2022-09-01T00:31:43.993Z,1.00
2022-09-01T00:34:11.506Z,0.70
2022-09-01T00:36:38.597Z,1.20
2022-09-01T00:39:06.910Z,0.90
2022-09-01T00:41:38.365Z,0.90
2022-09-01T00:44:09.162Z,1.17
2022-09-01T00:46:49.910Z,1.17
2022-09-01T00:49:31.542Z,0.70
2022-09-01T00:52:06.915Z,0.70
2022-09-01T00:54:37.234Z,1.10
2022-09-01T00:57:04.866Z,1.00
2022-09-01T00:59:32.634Z,0.87
2022-09-01T01:01:59.810Z,0.70
2022-09-01T01:04:27.308Z,0.87
2022-09-01T01:07:02.820Z,0.80
2022-09-01T01:09:34.318Z,0.83
2022-09-01T01:12:04.008Z,0.60
2022-09-01T01:14:32.415Z,1.00
2022-09-01T01:17:00.542Z,1.10
2022-09-01T01:20:05.350Z,0.90
2022-09-01T01:22:50.854Z,0.70
2022-09-01T01:25:19.282Z,0.70
2022-09-01T01:27:46.154Z,0.90
2022-09-01T01:30:14.359Z,0.90
2022-09-01T01:32:43.210Z,0.90
2022-09-01T01:35:15.003Z,0.70
2022-09-01T01:37:49.240Z,0.77
2022-09-01T01:40:20.443Z,0.70
2022-09-01T01:42:50.495Z,0.70
2022-09-01T01:45:20.153Z,0.90
2022-09-01T01:47:56.440Z,0.97
2022-09-01T01:50:33.943Z,1.10
2022-09-01T01:53:02.915Z,0.80
2022-09-01T01:55:38.295Z,0.90
2022-09-01T01:58:05.324Z,0.90
2022-09-01T02:00:35.150Z,0.93
2022-09-01T02:03:02.098Z,0.80
2022-09-01T02:05:32.269Z,0.70
2022-09-01T02:08:08.167Z,0.70
2022-09-01T02:10:40.671Z,1.07
2022-09-01T02:13:08.688Z,0.70
2022-09-01T02:15:44.576Z,0.97
2022-09-01T02:18:23.936Z,0.80
2022-09-01T02:20:52.448Z,0.90
2022-09-01T02:23:23.563Z,0.83
2022-09-01T02:26:15.728Z,1.00
2022-09-01T02:28:45.957Z,0.80
2022-09-01T02:31:13.269Z,0.90
2022-09-01T02:33:44.233Z,1.03
2022-09-01T02:36:15.397Z,0.70
2022-09-01T02:38:45.968Z,0.70
2022-09-01T02:41:14.652Z,0.90
2022-09-01T02:43:43.538Z,0.63
2022-09-01T02:46:10.677Z,0.83
2022-09-01T02:48:40.377Z,1.07
2022-09-01T02:51:10.951Z,1.13
2022-09-01T02:53:39.567Z,0.77
2022-09-01T02:56:12.103Z,1.00
2022-09-01T02:58:46.253Z,1.40
2022-09-01T03:01:20.488Z,0.80
2022-09-01T03:03:49.051Z,0.87
2022-09-01T03:06:18.510Z,0.67
2022-09-01T03:08:45.843Z,1.03
2022-09-01T03:11:13.474Z,0.90
2022-09-01T03:13:42.035Z,0.90
2022-09-01T03:16:10.280Z,0.70
2022-09-01T03:18:38.194Z,1.00
2022-09-01T03:21:08.540Z,1.03
2022-09-01T03:23:36.868Z,0.80
2022-09-01T03:26:04.166Z,0.90
2022-09-01T03:28:31.108Z,1.03
2022-09-01T03:30:59.379Z,1.20
2022-09-01T03:33:27.743Z,1.20
2022-09-01T03:35:56.024Z,0.80
2022-09-01T03:38:24.566Z,0.70
2022-09-01T03:41:02.103Z,0.87
2022-09-01T03:43:35.957Z,0.97
2022-09-01T03:46:04.028Z,0.90
2022-09-01T03:48:32.404Z,0.97
2022-09-01T03:51:03.641Z,1.10
2022-09-01T03:53:33.762Z,0.90
2022-09-01T03:56:01.612Z,0.60
2022-09-01T03:58:28.472Z,0.90
2022-09-01T04:01:00.726Z,1.00
2022-09-01T04:03:31.375Z,0.93
2022-09-01T04:06:00.702Z,1.00
2022-09-01T04:08:32.727Z,1.00
2022-09-01T04:11:10.701Z,1.07
2022-09-01T04:13:39.622Z,1.30
2022-09-01T04:16:30.624Z,0.93
2022-09-01T04:18:57.650Z,0.80
2022-09-01T04:21:24.553Z,1.13
2022-09-01T04:23:51.561Z,1.00
2022-09-01T04:26:20.564Z,1.00
2022-09-01T04:28:50.928Z,1.20
2022-09-01T04:31:21.201Z,0.90
2022-09-01T04:33:52.870Z,0.80
2022-09-01T04:36:19.785Z,1.00
2022-09-01T04:38:54.621Z,0.90
2022-09-01T04:41:25.738Z,1.03
2022-09-01T04:43:56.584Z,0.90
2022-09-01T04:46:26.076Z,1.20
2022-09-01T04:48:53.344Z,0.70
2022-09-01T04:51:20.865Z,1.07
2022-09-01T04:53:50.968Z,0.80
2022-09-01T04:56:19.862Z,0.90
2022-09-01T04:58:47.945Z,1.17
2022-09-01T05:01:21.504Z,0.70
2022-09-01T05:03:56.529Z,1.00
2022-09-01T05:06:23.952Z,0.73
2022-09-01T05:08:52.623Z,0.70
2022-09-01T05:11:20.023Z,0.90
2022-09-01T05:13:51.177Z,1.20
2022-09-01T05:16:25.252Z,1.70
2022-09-01T05:18:55.807Z,1.03
2022-09-01T05:21:26.485Z,1.30
2022-09-01T05:23:54.480Z,1.80
2022-09-01T05:26:27.848Z,1.43
2022-09-01T05:28:57.517Z,0.90
2022-09-01T05:31:28.238Z,1.40
2022-09-01T05:33:58.288Z,1.10
2022-09-01T05:36:25.789Z,0.80
2022-09-01T05:38:52.718Z,1.17
2022-09-01T05:41:21.148Z,1.03
2022-09-01T05:43:55.151Z,0.80
2022-09-01T05:46:26.677Z,0.90
2022-09-01T05:48:54.760Z,1.00
2022-09-01T05:51:43.131Z,1.10
2022-09-01T05:54:12.151Z,0.60
2022-09-01T05:56:43.519Z,1.20
2022-09-01T05:59:27.267Z,0.93
2022-09-01T06:01:55.209Z,1.20
2022-09-01T06:04:23.054Z,0.97
2022-09-01T06:07:07.940Z,0.73
2022-09-01T06:09:40.184Z,1.23
2022-09-01T06:12:09.256Z,0.90
2022-09-01T06:14:36.237Z,0.90
2022-09-01T06:17:03.433Z,0.90
2022-09-01T06:19:34.785Z,0.90
2022-09-01T06:22:04.866Z,1.17
2022-09-01T06:24:31.887Z,0.80
2022-09-01T06:26:59.795Z,1.00
2022-09-01T06:29:26.724Z,0.90
2022-09-01T06:31:53.540Z,0.70
2022-09-01T06:34:20.827Z,0.90
2022-09-01T06:36:50.362Z,0.87
2022-09-01T06:39:20.527Z,0.80
2022-09-01T06:41:49.739Z,1.10
2022-09-01T06:44:22.623Z,1.00
2022-09-01T06:46:51.717Z,0.87
2022-09-01T06:49:21.499Z,0.97
2022-09-01T06:51:49.802Z,0.70
2022-09-01T06:54:20.743Z,0.97
2022-09-01T06:59:35.288Z,0.80
2022-09-01T07:04:51.939Z,0.70
2022-09-01T07:10:18.214Z,0.67
2022-09-01T07:18:34.095Z,0.77
2022-09-01T07:21:36.195Z,0.80
2022-09-01T07:24:11.509Z,0.60
2022-09-01T07:26:48.095Z,0.80
2022-09-01T07:29:58.739Z,0.90
2022-09-01T07:35:14.610Z,0.80
2022-09-01T07:39:57.654Z,0.80
2022-09-01T07:43:22.372Z,0.70
2022-09-01T07:45:59.248Z,0.93
2022-09-01T07:48:36.720Z,1.00
2022-09-01T07:51:36.723Z,1.63
2022-09-01T07:54:05.556Z,0.70
2022-09-01T07:56:36.276Z,0.80
2022-09-01T07:59:07.082Z,0.60
2022-09-01T08:01:34.255Z,1.13
2022-09-01T08:04:02.832Z,1.00
2022-09-01T08:06:37.907Z,0.63
2022-09-01T08:09:11.560Z,0.87
2022-09-01T08:14:25.816Z,0.70
2022-09-01T08:16:53.158Z,0.70
2022-09-01T08:19:20.799Z,0.83
2022-09-01T08:21:47.623Z,0.60
2022-09-01T08:24:14.499Z,0.70
2022-09-01T08:26:41.385Z,0.40
2022-09-01T08:29:08.248Z,0.57
2022-09-01T08:31:35.783Z,0.60
2022-09-01T08:34:05.484Z,0.70
2022-09-01T08:36:32.946Z,0.50
2022-09-01T08:38:59.974Z,0.50
2022-09-01T08:41:52.006Z,0.70
2022-09-01T08:44:19.355Z,0.70
2022-09-01T08:46:46.956Z,1.30
2022-09-01T08:49:28.269Z,0.80
2022-09-01T08:52:21.265Z,0.70
2022-09-01T08:54:56.777Z,0.73
2022-09-01T08:57:47.834Z,0.70
2022-09-01T09:00:20.070Z,0.50
2022-09-01T09:02:53.099Z,0.77
2022-09-01T09:05:43.565Z,0.80
2022-09-01T09:08:38.248Z,0.83
2022-09-01T09:11:17.117Z,0.97
2022-09-01T09:14:02.771Z,0.90
2022-09-01T09:16:39.165Z,0.73
2022-09-01T09:19:22.313Z,0.83
2022-09-01T09:21:52.574Z,0.70
2022-09-01T09:24:25.299Z,0.70
2022-09-01T09:26:57.392Z,0.60
2022-09-01T09:29:25.708Z,0.77
2022-09-01T09:32:06.150Z,0.77
2022-09-01T09:34:37.472Z,0.70
2022-09-01T09:37:30.274Z,0.70
2022-09-01T09:40:23.412Z,1.03
2022-09-01T09:42:56.426Z,0.67
2022-09-01T09:45:30.297Z,0.60
2022-09-01T09:47:58.495Z,0.80
2022-09-01T09:50:32.920Z,0.70
2022-09-01T09:53:18.628Z,0.60
2022-09-01T09:55:59.148Z,0.90
2022-09-01T09:58:34.808Z,0.60
2022-09-01T10:01:17.705Z,0.73
2022-09-01T10:03:49.926Z,0.70
2022-09-01T10:06:47.099Z,0.60
2022-09-01T10:09:35.754Z,0.67
2022-09-01T10:12:04.170Z,0.50
2022-09-01T10:14:53.329Z,0.50
2022-09-01T10:17:35.895Z,0.60
2022-09-01T10:20:12.306Z,0.90
2022-09-01T10:22:41.304Z,0.77
2022-09-01T10:25:13.325Z,0.70
2022-09-01T10:27:43.435Z,0.40
2022-09-01T10:30:18.724Z,1.00
2022-09-01T10:32:54.870Z,1.33
2022-09-01T10:35:30.058Z,0.60
2022-09-01T10:38:06.960Z,0.77
2022-09-01T10:40:49.299Z,0.90
2022-09-01T10:43:41.125Z,0.80
2022-09-01T10:46:38.661Z,0.60
2022-09-01T10:49:46.506Z,1.50
2022-09-01T10:52:43.102Z,1.73
2022-09-01T10:55:25.009Z,0.80
2022-09-01T10:57:52.280Z,0.70
2022-09-01T11:06:17.702Z,0.70
2022-09-01T11:08:58.507Z,0.50
2022-09-01T11:11:31.765Z,0.50
2022-09-01T11:13:59.461Z,0.60
2022-09-01T11:16:53.712Z,0.50
2022-09-01T11:19:30.156Z,0.47
2022-09-01T11:22:09.597Z,0.60
2022-09-01T11:24:39.687Z,0.60
2022-09-01T11:27:11.706Z,0.50
2022-09-01T11:30:00.919Z,0.53
2022-09-01T11:32:34.258Z,0.53
2022-09-01T11:35:05.057Z,0.87
2022-09-01T11:37:33.673Z,1.00
2022-09-01T11:40:04.335Z,0.80
2022-09-01T11:42:46.850Z,1.63
2022-09-01T11:45:21.608Z,0.60
2022-09-01T11:47:54.484Z,0.50
2022-09-01T11:50:30.499Z,0.60
2022-09-01T11:53:04.937Z,0.70
2022-09-01T11:55:41.757Z,1.17
2022-09-01T11:58:17.978Z,1.00
2022-09-01T12:00:45.244Z,1.03
2022-09-01T12:03:30.186Z,1.50
2022-09-01T12:06:01.250Z,0.70
2022-09-01T12:08:33.987Z,0.50
2022-09-01T12:11:41.915Z,0.80
2022-09-01T12:14:12.161Z,0.60
2022-09-01T12:16:42.718Z,0.50
2022-09-01T12:19:23.897Z,0.60
2022-09-01T12:22:00.089Z,0.70
2022-09-01T12:24:30.630Z,0.63
2022-09-01T12:26:59.074Z,0.70
2022-09-01T12:29:31.443Z,0.60
2022-09-01T12:32:00.796Z,0.50
2022-09-01T12:34:33.625Z,0.60
2022-09-01T12:37:15.883Z,0.60
2022-09-01T12:39:48.589Z,0.60
2022-09-01T12:42:21.664Z,0.60
2022-09-01T12:45:09.016Z,0.60
2022-09-01T12:47:36.817Z,0.63
2022-09-01T12:50:16.482Z,1.00
2022-09-01T12:52:52.427Z,0.60
2022-09-01T12:58:23.395Z,0.53
2022-09-01T13:01:04.169Z,0.60
2022-09-01T13:03:34.692Z,0.60
2022-09-01T13:06:03.630Z,0.70
2022-09-01T13:08:33.658Z,0.67
2022-09-01T13:11:13.712Z,0.70
2022-09-01T13:13:40.712Z,0.60
2022-09-01T13:16:12.992Z,0.50
2022-09-01T13:21:30.208Z,0.70
2022-09-01T13:23:57.408Z,0.50
2022-09-01T13:26:24.446Z,0.60
2022-09-01T13:28:51.736Z,0.73
2022-09-01T13:31:35.627Z,0.60
2022-09-01T13:34:20.350Z,0.90
2022-09-01T13:36:52.531Z,0.53
2022-09-01T13:39:20.838Z,0.60
2022-09-01T13:41:48.559Z,0.60
2022-09-01T13:44:17.260Z,0.63
2022-09-01T13:47:01.151Z,1.20
2022-09-01T13:52:19.350Z,1.07
2022-09-01T13:54:47.846Z,0.70
2022-09-01T13:57:16.595Z,0.57
2022-09-01T13:59:44.579Z,0.63
2022-09-01T14:02:11.714Z,0.50
2022-09-01T14:04:39.132Z,0.60
2022-09-01T14:07:06.443Z,0.80
2022-09-01T14:09:33.944Z,0.50
2022-09-01T14:12:00.989Z,0.70
2022-09-01T14:15:10.804Z,0.77
2022-09-01T14:17:14.711Z,0.80
2022-09-01T14:19:42.387Z,0.70
2022-09-01T14:22:09.296Z,0.50
2022-09-01T14:24:38.863Z,0.90
2022-09-01T14:27:07.769Z,1.67
2022-09-01T14:29:35.159Z,0.67
2022-09-01T14:32:02.279Z,0.80
2022-09-01T14:34:30.987Z,0.70
2022-09-01T14:36:58.108Z,1.00
2022-09-01T14:39:25.414Z,0.90
2022-09-01T14:41:52.376Z,0.70
2022-09-01T14:44:19.255Z,0.67
2022-09-01T14:46:47.084Z,0.77
2022-09-01T14:49:20.187Z,0.67
2022-09-01T14:54:38.094Z,0.67
2022-09-01T14:59:53.275Z,0.90
2022-09-01T15:02:20.224Z,0.50
2022-09-01T15:04:47.254Z,0.60
2022-09-01T15:07:14.568Z,0.70
2022-09-01T15:09:42.624Z,0.50
2022-09-01T15:12:09.940Z,0.70
2022-09-01T15:14:37.948Z,0.80
2022-09-01T15:17:05.488Z,0.90
2022-09-01T15:19:32.435Z,0.93
2022-09-01T15:21:59.631Z,0.70
2022-09-01T15:24:26.521Z,0.70
2022-09-01T15:26:53.584Z,0.53
2022-09-01T15:29:20.421Z,0.70
2022-09-01T15:31:47.370Z,0.50
2022-09-01T15:34:14.688Z,0.60
2022-09-01T15:36:42.063Z,0.50
2022-09-01T15:39:10.408Z,0.50
2022-09-01T15:41:38.712Z,0.60
2022-09-01T15:44:07.307Z,0.63
2022-09-01T15:46:36.193Z,1.00
2022-09-01T15:49:06.533Z,0.40
2022-09-01T15:51:35.884Z,0.97
2022-09-01T15:54:11.950Z,0.50
2022-09-01T15:56:40.122Z,0.73
2022-09-01T15:59:07.947Z,0.60
2022-09-01T16:01:38.938Z,0.60
2022-09-01T16:04:07.870Z,0.70
2022-09-01T16:06:35.500Z,0.60
2022-09-01T16:09:02.474Z,0.80
2022-09-01T16:11:29.502Z,0.70
2022-09-01T16:13:57.003Z,0.57
2022-09-01T16:16:53.230Z,0.80
2022-09-01T16:19:39.997Z,0.80
2022-09-01T16:22:31.484Z,1.50
2022-09-01T16:25:13.252Z,0.70
2022-09-01T16:27:43.489Z,1.10
2022-09-01T16:30:14.166Z,1.40
2022-09-01T16:32:45.790Z,1.20
2022-09-01T16:35:13.780Z,0.60
2022-09-01T16:38:31.281Z,0.90
2022-09-01T16:41:37.916Z,0.67
2022-09-01T16:44:13.807Z,0.80
2022-09-01T16:47:09.634Z,0.70
2022-09-01T16:49:53.481Z,0.77
2022-09-01T16:52:28.887Z,0.80
2022-09-01T16:55:19.986Z,0.60
2022-09-01T16:58:00.511Z,1.60
2022-09-01T17:00:44.190Z,0.80
2022-09-01T17:03:19.150Z,0.70
2022-09-01T17:05:57.066Z,1.37
2022-09-01T17:08:26.780Z,0.90
2022-09-01T17:10:56.355Z,0.60
2022-09-01T17:13:48.001Z,0.70
2022-09-01T17:16:38.249Z,0.70
2022-09-01T17:19:08.163Z,0.60
2022-09-01T17:21:53.402Z,0.90
2022-09-01T17:24:28.094Z,0.70
2022-09-01T17:27:12.673Z,0.70
2022-09-01T17:29:51.762Z,0.70
2022-09-01T17:32:36.607Z,1.10
2022-09-01T17:35:32.039Z,0.93
2022-09-01T17:38:14.116Z,0.60
2022-09-01T17:40:46.933Z,1.10
2022-09-01T17:43:21.017Z,1.13
2022-09-01T17:46:28.525Z,0.90
2022-09-01T17:48:58.243Z,1.17
2022-09-01T17:51:59.453Z,1.30
2022-09-01T17:54:50.397Z,0.70
2022-09-01T17:57:37.998Z,1.07
2022-09-01T18:00:24.841Z,0.83
2022-09-01T18:03:09.857Z,0.80
2022-09-01T18:05:42.992Z,0.90
2022-09-01T18:08:20.995Z,1.20
2022-09-01T18:10:50.070Z,0.90
2022-09-01T18:13:52.819Z,1.10
2022-09-01T18:16:26.726Z,1.00
2022-09-01T18:18:54.049Z,0.90
2022-09-01T18:21:37.349Z,0.93
2022-09-01T18:24:16.163Z,0.60
2022-09-01T18:26:47.333Z,1.43
2022-09-01T18:29:14.307Z,0.70
2022-09-01T18:32:08.392Z,0.80
2022-09-01T18:34:55.242Z,0.70
2022-09-01T18:37:33.553Z,0.90
2022-09-01T18:40:28.929Z,0.93
2022-09-01T18:43:20.050Z,1.33
2022-09-01T18:46:03.607Z,0.80
2022-09-01T18:48:56.841Z,0.93
2022-09-01T18:51:52.807Z,0.90
2022-09-01T18:54:28.372Z,1.00
2022-09-01T18:57:00.792Z,0.90
2022-09-01T18:59:44.676Z,0.80
2022-09-01T19:02:17.785Z,1.20
2022-09-01T19:04:46.101Z,0.90
2022-09-01T19:07:45.330Z,0.97
2022-09-01T19:10:24.620Z,0.90
2022-09-01T19:13:28.114Z,1.10
2022-09-01T19:15:58.120Z,1.43
2022-09-01T19:18:38.872Z,1.27
2022-09-01T19:21:05.730Z,1.17
2022-09-01T19:23:36.316Z,0.90
2022-09-01T19:26:07.710Z,1.80
2022-09-01T19:28:43.941Z,1.00
2022-09-01T19:31:25.981Z,1.00
2022-09-01T19:33:57.717Z,0.90
2022-09-01T19:36:39.264Z,1.07
2022-09-01T19:39:10.645Z,1.30
2022-09-01T19:42:03.119Z,1.03
2022-09-01T19:44:52.301Z,1.10
2022-09-01T19:47:28.643Z,1.53
2022-09-01T19:50:21.289Z,0.87
2022-09-01T19:53:00.636Z,1.30
2022-09-01T19:55:38.734Z,1.63
2022-09-01T19:58:21.062Z,0.90
2022-09-01T20:01:01.439Z,1.03
2022-09-01T20:03:40.251Z,0.80
2022-09-01T20:06:13.779Z,2.17
2022-09-01T20:08:48.116Z,1.20
2022-09-01T20:11:24.287Z,1.40
2022-09-01T20:14:06.223Z,1.27
2022-09-01T20:16:44.102Z,1.53
2022-09-01T20:19:40.606Z,1.43
2022-09-01T20:22:14.094Z,1.20
2022-09-01T20:24:41.278Z,1.43
2022-09-01T20:27:25.344Z,1.20
2022-09-01T20:30:02.203Z,1.17
2022-09-01T20:32:32.980Z,1.40
2022-09-01T20:35:17.521Z,1.20
2022-09-01T20:37:49.532Z,1.17
2022-09-01T20:41:19.013Z,1.57
2022-09-01T20:43:52.266Z,2.27
2022-09-01T20:46:21.107Z,1.10
2022-09-01T20:48:48.633Z,1.37
2022-09-01T20:51:21.715Z,0.93
2022-09-01T20:54:13.024Z,1.00
2022-09-01T20:57:04.034Z,1.10
2022-09-01T20:59:49.028Z,1.10
2022-09-01T21:02:37.425Z,1.10
2022-09-01T21:05:38.322Z,1.03
2022-09-01T21:08:14.379Z,1.10
2022-09-01T21:11:12.784Z,1.20
2022-09-01T21:14:06.094Z,1.30
2022-09-01T21:16:51.388Z,0.97
2022-09-01T21:19:39.014Z,0.90
2022-09-01T21:22:05.836Z,1.27
2022-09-01T21:24:33.771Z,1.30
2022-09-01T21:27:05.190Z,1.40
2022-09-01T21:29:51.606Z,1.20
2022-09-01T21:32:18.732Z,1.13
2022-09-01T21:34:47.598Z,1.83
2022-09-01T21:37:14.798Z,1.07
2022-09-01T21:39:41.702Z,1.50
2022-09-01T21:42:10.694Z,2.07
2022-09-01T21:44:38.293Z,1.30
2022-09-01T21:47:05.449Z,1.10
2022-09-01T21:49:33.357Z,1.60
2022-09-01T21:52:00.538Z,1.80
2022-09-01T21:54:27.501Z,2.40
2022-09-01T21:56:54.666Z,1.87
2022-09-01T21:59:21.628Z,1.50
2022-09-01T22:01:54.556Z,1.33
2022-09-01T22:04:23.143Z,1.27
2022-09-01T22:06:51.476Z,1.20
2022-09-01T22:09:20.975Z,1.77
2022-09-01T22:11:49.971Z,1.30
2022-09-01T22:14:17.318Z,1.40
2022-09-01T22:16:44.671Z,1.40
2022-09-01T22:19:11.840Z,1.47
2022-09-01T22:21:41.503Z,1.10
2022-09-01T22:24:09.254Z,1.53
2022-09-01T22:26:36.700Z,1.40
2022-09-01T22:29:06.454Z,1.70
2022-09-01T22:31:36.290Z,1.50
2022-09-01T22:34:04.089Z,1.47
2022-09-01T22:36:40.502Z,1.67
2022-09-01T22:39:09.961Z,1.50
2022-09-01T22:41:38.260Z,1.70
2022-09-01T22:44:06.426Z,1.60
2022-09-01T22:46:35.505Z,1.50
2022-09-01T22:49:02.894Z,1.50
2022-09-01T22:51:30.126Z,1.97
2022-09-01T22:53:56.949Z,1.30
2022-09-01T22:56:29.777Z,1.40
2022-09-01T22:58:59.021Z,1.53
2022-09-01T23:01:31.565Z,1.70
2022-09-01T23:04:01.846Z,1.40
2022-09-01T23:06:31.233Z,1.60
2022-09-01T23:09:01.040Z,1.33
2022-09-01T23:11:28.414Z,1.70
2022-09-01T23:13:55.850Z,1.80
2022-09-01T23:16:24.901Z,1.60
2022-09-01T23:18:53.249Z,1.93
2022-09-01T23:21:23.137Z,1.70
2022-09-01T23:23:58.230Z,1.60
2022-09-01T23:26:26.545Z,1.80
2022-09-01T23:28:53.453Z,1.60
2022-09-01T23:31:24.708Z,1.33
2022-09-01T23:33:51.992Z,1.80
2022-09-01T23:36:20.905Z,1.70
2022-09-01T23:38:48.576Z,1.83
2022-09-01T23:41:23.279Z,1.87
2022-09-01T23:43:51.716Z,1.57
2022-09-01T23:46:21.549Z,1.57
2022-09-01T23:48:48.386Z,1.47
2022-09-01T23:51:18.036Z,1.27
2022-09-01T23:53:46.563Z,1.40
2022-09-01T23:56:16.987Z,1.30
2022-09-01T23:58:44.018Z,1.60
